sensor_id;sensor_type;location;lat;lon;timestamp;pressure;altitude;pressure_sealevel;temperature;humidity
28456;BME280;15682;56.742;38.866;2022-08-21T00:00:32;100700.0;;;15.3;60.7
28456;BME280;15682;56.742;38.866;2022-08-21T00:02:32;100700.0;;;15.3;60.7
28456;BME280;15682;56.742;38.866;2022-08-21T00:04:32;100700.0;;;15.3;60.7
28456;BME280;15682;56.742;38.866;2022-08-21T00:06:33;100690.0;;;15.3;60.6
28456;BME280;15682;56.742;38.866;2022-08-21T00:08:33;100690.0;;;15.4;60.6
28456;BME280;15682;56.742;38.866;2022-08-21T00:10:33;100690.0;;;15.4;60.6
28456;BME280;15682;56.742;38.866;2022-08-21T00:12:33;100690.0;;;15.4;60.6
28456;BME280;15682;56.742;38.866;2022-08-21T00:14:34;100690.0;;;15.4;60.6
28456;BME280;15682;56.742;38.866;2022-08-21T00:16:34;100690.0;;;15.4;60.5
28456;BME280;15682;56.742;38.866;2022-08-21T00:18:34;100690.0;;;15.4;60.5
28456;BME280;15682;56.742;38.866;2022-08-21T00:20:34;100690.0;;;15.4;60.5
28456;BME280;15682;56.742;38.866;2022-08-21T00:22:35;100690.0;;;15.4;60.5
28456;BME280;15682;56.742;38.866;2022-08-21T00:24:35;100690.0;;;15.4;60.5
28456;BME280;15682;56.742;38.866;2022-08-21T00:26:35;100690.0;;;15.4;60.3
28456;BME280;15682;56.742;38.866;2022-08-21T00:28:36;100690.0;;;15.4;60.3
28456;BME280;15682;56.742;38.866;2022-08-21T00:30:36;100690.0;;;15.4;60.3
28456;BME280;15682;56.742;38.866;2022-08-21T00:32:38;100690.0;;;15.4;60.3
28456;BME280;15682;56.742;38.866;2022-08-21T00:34:36;100690.0;;;15.4;60.3
28456;BME280;15682;56.742;38.866;2022-08-21T00:36:37;100690.0;;;15.4;60.2
28456;BME280;15682;56.742;38.866;2022-08-21T00:38:37;100690.0;;;15.4;60.2
28456;BME280;15682;56.742;38.866;2022-08-21T00:40:46;100690.0;;;15.4;60.2
28456;BME280;15682;56.742;38.866;2022-08-21T00:42:37;100690.0;;;15.4;60.2
28456;BME280;15682;56.742;38.866;2022-08-21T00:44:37;100690.0;;;15.4;60.2
28456;BME280;15682;56.742;38.866;2022-08-21T00:46:38;100690.0;;;15.4;60.3
28456;BME280;15682;56.742;38.866;2022-08-21T00:48:38;100690.0;;;15.4;60.3
28456;BME280;15682;56.742;38.866;2022-08-21T00:50:43;100690.0;;;15.4;60.3
28456;BME280;15682;56.742;38.866;2022-08-21T00:52:39;100690.0;;;15.4;60.3
28456;BME280;15682;56.742;38.866;2022-08-21T00:54:40;100690.0;;;15.4;60.3
28456;BME280;15682;56.742;38.866;2022-08-21T00:56:39;100690.0;;;15.4;60.8
28456;BME280;15682;56.742;38.866;2022-08-21T00:58:41;100690.0;;;15.3;60.8
28456;BME280;15682;56.742;38.866;2022-08-21T01:00:42;100690.0;;;15.2;60.8
28456;BME280;15682;56.742;38.866;2022-08-21T01:02:40;100690.0;;;15.2;60.8
28456;BME280;15682;56.742;38.866;2022-08-21T01:04:40;100690.0;;;15.2;60.8
28456;BME280;15682;56.742;38.866;2022-08-21T01:06:40;100690.0;;;15.2;61.2
28456;BME280;15682;56.742;38.866;2022-08-21T01:08:41;100690.0;;;15.1;61.3
28456;BME280;15682;56.742;38.866;2022-08-21T01:10:41;100690.0;;;15.1;61.3
28456;BME280;15682;56.742;38.866;2022-08-21T01:12:41;100690.0;;;15.1;61.3
28456;BME280;15682;56.742;38.866;2022-08-21T01:14:42;100690.0;;;15.1;61.3
28456;BME280;15682;56.742;38.866;2022-08-21T01:16:44;100690.0;;;15.1;61.7
28456;BME280;15682;56.742;38.866;2022-08-21T01:18:42;100690.0;;;15.1;61.7
28456;BME280;15682;56.742;38.866;2022-08-21T01:22:42;100680.0;;;15.0;61.9
28456;BME280;15682;56.742;38.866;2022-08-21T01:24:43;100680.0;;;15.0;61.9
28456;BME280;15682;56.742;38.866;2022-08-21T01:26:43;100680.0;;;15.0;62.2
28456;BME280;15682;56.742;38.866;2022-08-21T01:28:47;100680.0;;;14.9;62.2
28456;BME280;15682;56.742;38.866;2022-08-21T01:30:44;100680.0;;;14.9;62.5
28456;BME280;15682;56.742;38.866;2022-08-21T01:32:44;100680.0;;;14.9;62.5
28456;BME280;15682;56.742;38.866;2022-08-21T01:34:45;100680.0;;;14.9;62.5
28456;BME280;15682;56.742;38.866;2022-08-21T01:36:45;100680.0;;;14.9;62.5
28456;BME280;15682;56.742;38.866;2022-08-21T01:38:44;100680.0;;;14.8;62.5
28456;BME280;15682;56.742;38.866;2022-08-21T01:40:45;100680.0;;;14.8;62.5
28456;BME280;15682;56.742;38.866;2022-08-21T01:42:45;100680.0;;;14.8;62.5
28456;BME280;15682;56.742;38.866;2022-08-21T01:44:45;100680.0;;;14.8;62.5
28456;BME280;15682;56.742;38.866;2022-08-21T01:46:45;100680.0;;;14.7;62.7
28456;BME280;15682;56.742;38.866;2022-08-21T01:48:46;100680.0;;;14.7;62.7
28456;BME280;15682;56.742;38.866;2022-08-21T01:50:46;100680.0;;;14.7;62.7
28456;BME280;15682;56.742;38.866;2022-08-21T01:52:46;100680.0;;;14.7;62.7
28456;BME280;15682;56.742;38.866;2022-08-21T01:54:46;100680.0;;;14.7;62.7
28456;BME280;15682;56.742;38.866;2022-08-21T01:56:49;100680.0;;;14.7;63.0
28456;BME280;15682;56.742;38.866;2022-08-21T01:58:47;100680.0;;;14.6;63.0
28456;BME280;15682;56.742;38.866;2022-08-21T02:00:47;100680.0;;;14.6;63.0
28456;BME280;15682;56.742;38.866;2022-08-21T02:02:47;100680.0;;;14.6;63.0
28456;BME280;15682;56.742;38.866;2022-08-21T02:04:48;100680.0;;;14.6;63.0
28456;BME280;15682;56.742;38.866;2022-08-21T02:06:48;100680.0;;;14.6;63.4
28456;BME280;15682;56.742;38.866;2022-08-21T02:08:48;100680.0;;;14.6;63.5
28456;BME280;15682;56.742;38.866;2022-08-21T02:10:49;100670.0;;;14.6;63.5
28456;BME280;15682;56.742;38.866;2022-08-21T02:12:49;100670.0;;;14.6;63.5
28456;BME280;15682;56.742;38.866;2022-08-21T02:14:49;100670.0;;;14.6;63.5
28456;BME280;15682;56.742;38.866;2022-08-21T02:16:49;100670.0;;;14.5;63.7
28456;BME280;15682;56.742;38.866;2022-08-21T02:18:49;100670.0;;;14.5;63.7
28456;BME280;15682;56.742;38.866;2022-08-21T02:20:50;100670.0;;;14.5;63.7
28456;BME280;15682;56.742;38.866;2022-08-21T02:22:50;100670.0;;;14.5;63.7
28456;BME280;15682;56.742;38.866;2022-08-21T02:24:50;100670.0;;;14.5;63.7
28456;BME280;15682;56.742;38.866;2022-08-21T02:26:50;100670.0;;;14.5;63.6
28456;BME280;15682;56.742;38.866;2022-08-21T02:28:52;100670.0;;;14.5;63.6
28456;BME280;15682;56.742;38.866;2022-08-21T02:30:51;100670.0;;;14.5;63.6
28456;BME280;15682;56.742;38.866;2022-08-21T02:32:51;100670.0;;;14.5;63.6
28456;BME280;15682;56.742;38.866;2022-08-21T02:34:51;100670.0;;;14.5;63.6
28456;BME280;15682;56.742;38.866;2022-08-21T02:36:52;100670.0;;;14.5;63.8
28456;BME280;15682;56.742;38.866;2022-08-21T02:38:52;100670.0;;;14.4;63.8
28456;BME280;15682;56.742;38.866;2022-08-21T02:40:53;100670.0;;;14.4;63.8
28456;BME280;15682;56.742;38.866;2022-08-21T02:42:53;100670.0;;;14.6;63.8
28456;BME280;15682;56.742;38.866;2022-08-21T02:44:52;100670.0;;;14.6;63.8
28456;BME280;15682;56.742;38.866;2022-08-21T02:46:53;100670.0;;;14.6;63.2
28456;BME280;15682;56.742;38.866;2022-08-21T02:48:53;100670.0;;;14.6;63.2
28456;BME280;15682;56.742;38.866;2022-08-21T02:50:55;100670.0;;;14.6;62.9
28456;BME280;15682;56.742;38.866;2022-08-21T02:52:54;100670.0;;;14.7;62.9
28456;BME280;15682;56.742;38.866;2022-08-21T02:54:54;100670.0;;;14.7;62.9
28456;BME280;15682;56.742;38.866;2022-08-21T02:56:54;100670.0;;;14.7;62.4
28456;BME280;15682;56.742;38.866;2022-08-21T02:58:54;100670.0;;;14.9;62.4
28456;BME280;15682;56.742;38.866;2022-08-21T03:00:55;100670.0;;;15.0;62.4
28456;BME280;15682;56.742;38.866;2022-08-21T03:02:56;100670.0;;;15.0;62.4
28456;BME280;15682;56.742;38.866;2022-08-21T03:04:55;100670.0;;;15.0;61.9
28456;BME280;15682;56.742;38.866;2022-08-21T03:06:55;100670.0;;;15.0;61.9
28456;BME280;15682;56.742;38.866;2022-08-21T03:08:55;100670.0;;;14.9;61.9
28456;BME280;15682;56.742;38.866;2022-08-21T03:10:56;100670.0;;;14.9;61.9
28456;BME280;15682;56.742;38.866;2022-08-21T03:12:57;100670.0;;;14.9;61.9
28456;BME280;15682;56.742;38.866;2022-08-21T03:14:56;100670.0;;;14.9;61.9
28456;BME280;15682;56.742;38.866;2022-08-21T03:16:56;100670.0;;;15.1;61.7
28456;BME280;15682;56.742;38.866;2022-08-21T03:18:57;100670.0;;;15.3;61.1
28456;BME280;15682;56.742;38.866;2022-08-21T03:20:57;100670.0;;;15.4;59.4
28456;BME280;15682;56.742;38.866;2022-08-21T03:22:58;100670.0;;;15.5;58.6
28456;BME280;15682;56.742;38.866;2022-08-21T03:24:58;100670.0;;;15.5;60.0
28456;BME280;15682;56.742;38.866;2022-08-21T03:26:58;100670.0;;;15.4;60.9
28456;BME280;15682;56.742;38.866;2022-08-21T03:28:58;100670.0;;;15.3;60.9
28456;BME280;15682;56.742;38.866;2022-08-21T03:30:58;100670.0;;;15.4;60.9
28456;BME280;15682;56.742;38.866;2022-08-21T03:32:59;100670.0;;;15.4;60.9
28456;BME280;15682;56.742;38.866;2022-08-21T03:34:59;100670.0;;;15.4;60.9
28456;BME280;15682;56.742;38.866;2022-08-21T03:36:59;100670.0;;;15.4;60.6
28456;BME280;15682;56.742;38.866;2022-08-21T03:38:59;100670.0;;;15.5;60.6
28456;BME280;15682;56.742;38.866;2022-08-21T03:41:00;100670.0;;;15.5;60.3
28456;BME280;15682;56.742;38.866;2022-08-21T03:43:00;100670.0;;;15.5;60.3
28456;BME280;15682;56.742;38.866;2022-08-21T03:45:00;100680.0;;;15.5;60.3
28456;BME280;15682;56.742;38.866;2022-08-21T03:47:01;100680.0;;;15.5;60.1
28456;BME280;15682;56.742;38.866;2022-08-21T03:49:01;100690.0;;;15.4;59.7
28456;BME280;15682;56.742;38.866;2022-08-21T03:51:01;100690.0;;;15.4;59.7
28456;BME280;15682;56.742;38.866;2022-08-21T03:53:01;100690.0;;;15.4;59.7
28456;BME280;15682;56.742;38.866;2022-08-21T03:55:01;100690.0;;;15.4;59.7
28456;BME280;15682;56.742;38.866;2022-08-21T03:57:02;100690.0;;;15.4;59.8
28456;BME280;15682;56.742;38.866;2022-08-21T03:59:02;100690.0;;;15.6;59.1
28456;BME280;15682;56.742;38.866;2022-08-21T04:01:04;100690.0;;;15.6;59.1
28456;BME280;15682;56.742;38.866;2022-08-21T04:03:03;100690.0;;;15.6;59.1
28456;BME280;15682;56.742;38.866;2022-08-21T04:05:04;100690.0;;;15.5;59.1
28456;BME280;15682;56.742;38.866;2022-08-21T04:07:04;100690.0;;;15.5;58.7
28456;BME280;15682;56.742;38.866;2022-08-21T04:09:03;100690.0;;;15.6;57.8
28456;BME280;15682;56.742;38.866;2022-08-21T04:11:05;100690.0;;;15.6;57.9
28456;BME280;15682;56.742;38.866;2022-08-21T04:13:05;100690.0;;;15.7;58.4
28456;BME280;15682;56.742;38.866;2022-08-21T04:15:05;100690.0;;;15.7;57.6
28456;BME280;15682;56.742;38.866;2022-08-21T04:17:05;100690.0;;;15.8;57.6
28456;BME280;15682;56.742;38.866;2022-08-21T04:19:05;100690.0;;;15.9;57.0
28456;BME280;15682;56.742;38.866;2022-08-21T04:21:06;100690.0;;;16.0;57.3
28456;BME280;15682;56.742;38.866;2022-08-21T04:23:06;100690.0;;;16.1;56.3
28456;BME280;15682;56.742;38.866;2022-08-21T04:25:07;100690.0;;;16.2;56.3
28456;BME280;15682;56.742;38.866;2022-08-21T04:27:06;100690.0;;;16.3;55.6
28456;BME280;15682;56.742;38.866;2022-08-21T04:29:07;100690.0;;;16.5;55.1
28456;BME280;15682;56.742;38.866;2022-08-21T04:31:07;100690.0;;;16.6;54.5
28456;BME280;15682;56.742;38.866;2022-08-21T04:33:08;100690.0;;;16.6;54.5
28456;BME280;15682;56.742;38.866;2022-08-21T04:35:10;100690.0;;;16.8;53.9
28456;BME280;15682;56.742;38.866;2022-08-21T04:37:08;100690.0;;;16.8;53.9
28456;BME280;15682;56.742;38.866;2022-08-21T04:39:09;100690.0;;;16.9;53.9
28456;BME280;15682;56.742;38.866;2022-08-21T04:41:09;100690.0;;;16.9;54.0
28456;BME280;15682;56.742;38.866;2022-08-21T04:43:10;100690.0;;;17.1;54.0
28456;BME280;15682;56.742;38.866;2022-08-21T04:45:16;100690.0;;;17.2;53.2
28456;BME280;15682;56.742;38.866;2022-08-21T04:47:11;100690.0;;;17.2;53.2
28456;BME280;15682;56.742;38.866;2022-08-21T04:49:11;100690.0;;;17.3;53.2
28456;BME280;15682;56.742;38.866;2022-08-21T04:51:15;100690.0;;;17.4;53.6
28456;BME280;15682;56.742;38.866;2022-08-21T04:53:15;100690.0;;;17.4;53.6
28456;BME280;15682;56.742;38.866;2022-08-21T04:55:13;100690.0;;;17.4;53.6
28456;BME280;15682;56.742;38.866;2022-08-21T04:57:15;100690.0;;;17.6;52.6
28456;BME280;15682;56.742;38.866;2022-08-21T04:59:17;100690.0;;;17.6;52.6
28456;BME280;15682;56.742;38.866;2022-08-21T05:01:18;100690.0;;;17.6;53.2
28456;BME280;15682;56.742;38.866;2022-08-21T05:03:17;100690.0;;;17.6;52.5
28456;BME280;15682;56.742;38.866;2022-08-21T05:05:16;100690.0;;;17.7;52.5
28456;BME280;15682;56.742;38.866;2022-08-21T05:07:20;100690.0;;;17.8;52.5
28456;BME280;15682;56.742;38.866;2022-08-21T05:09:17;100690.0;;;18.0;51.9
28456;BME280;15682;56.742;38.866;2022-08-21T05:11:17;100690.0;;;18.1;51.9
28456;BME280;15682;56.742;38.866;2022-08-21T05:13:18;100690.0;;;18.3;50.8
28456;BME280;15682;56.742;38.866;2022-08-21T05:15:18;100680.0;;;18.5;50.8
28456;BME280;15682;56.742;38.866;2022-08-21T05:17:18;100680.0;;;18.6;50.8
28456;BME280;15682;56.742;38.866;2022-08-21T05:19:19;100680.0;;;18.7;50.3
28456;BME280;15682;56.742;38.866;2022-08-21T05:21:20;100680.0;;;18.8;49.3
28456;BME280;15682;56.742;38.866;2022-08-21T05:23:20;100680.0;;;18.9;50.1
28456;BME280;15682;56.742;38.866;2022-08-21T05:25:21;100680.0;;;19.1;48.8
28456;BME280;15682;56.742;38.866;2022-08-21T05:27:21;100680.0;;;19.1;48.8
28456;BME280;15682;56.742;38.866;2022-08-21T05:29:22;100690.0;;;19.2;48.8
28456;BME280;15682;56.742;38.866;2022-08-21T05:31:23;100690.0;;;19.4;48.9
28456;BME280;15682;56.742;38.866;2022-08-21T05:33:23;100690.0;;;19.4;48.5
28456;BME280;15682;56.742;38.866;2022-08-21T05:35:24;100690.0;;;19.6;48.5
28456;BME280;15682;56.742;38.866;2022-08-21T05:37:24;100690.0;;;19.8;47.3
28456;BME280;15682;56.742;38.866;2022-08-21T05:39:25;100690.0;;;19.8;46.7
28456;BME280;15682;56.742;38.866;2022-08-21T05:41:25;100690.0;;;19.9;48.0
28456;BME280;15682;56.742;38.866;2022-08-21T05:43:26;100690.0;;;19.9;48.0
28456;BME280;15682;56.742;38.866;2022-08-21T05:45:29;100690.0;;;20.0;46.4
28456;BME280;15682;56.742;38.866;2022-08-21T05:47:27;100690.0;;;20.1;46.4
28456;BME280;15682;56.742;38.866;2022-08-21T05:49:28;100690.0;;;20.2;45.4
28456;BME280;15682;56.742;38.866;2022-08-21T05:51:28;100690.0;;;20.2;46.1
28456;BME280;15682;56.742;38.866;2022-08-21T05:53:29;100690.0;;;20.2;46.1
28456;BME280;15682;56.742;38.866;2022-08-21T05:55:30;100690.0;;;20.2;46.1
28456;BME280;15682;56.742;38.866;2022-08-21T05:57:30;100690.0;;;20.4;46.1
28456;BME280;15682;56.742;38.866;2022-08-21T05:59:31;100690.0;;;20.4;45.2
28456;BME280;15682;56.742;38.866;2022-08-21T06:01:32;100690.0;;;20.5;44.6
28456;BME280;15682;56.742;38.866;2022-08-21T06:03:34;100690.0;;;20.5;46.0
28456;BME280;15682;56.742;38.866;2022-08-21T06:05:33;100690.0;;;20.6;46.0
28456;BME280;15682;56.742;38.866;2022-08-21T06:07:33;100690.0;;;20.9;44.9
28456;BME280;15682;56.742;38.866;2022-08-21T06:09:34;100690.0;;;21.0;44.0
28456;BME280;15682;56.742;38.866;2022-08-21T06:11:35;100690.0;;;21.0;43.9
28456;BME280;15682;56.742;38.866;2022-08-21T06:13:36;100690.0;;;21.0;43.4
28456;BME280;15682;56.742;38.866;2022-08-21T06:15:36;100680.0;;;21.1;44.5
28456;BME280;15682;56.742;38.866;2022-08-21T06:17:37;100670.0;;;21.1;44.3
28456;BME280;15682;56.742;38.866;2022-08-21T06:19:38;100670.0;;;21.1;43.4
28456;BME280;15682;56.742;38.866;2022-08-21T06:21:38;100670.0;;;21.1;44.0
28456;BME280;15682;56.742;38.866;2022-08-21T06:23:39;100670.0;;;21.2;43.2
28456;BME280;15682;56.742;38.866;2022-08-21T06:25:39;100670.0;;;21.2;43.2
28456;BME280;15682;56.742;38.866;2022-08-21T06:27:40;100670.0;;;21.4;43.2
28456;BME280;15682;56.742;38.866;2022-08-21T06:29:41;100670.0;;;21.4;42.1
28456;BME280;15682;56.742;38.866;2022-08-21T06:31:41;100660.0;;;21.5;43.4
28456;BME280;15682;56.742;38.866;2022-08-21T06:33:42;100660.0;;;21.6;43.4
28456;BME280;15682;56.742;38.866;2022-08-21T06:35:42;100660.0;;;21.7;42.8
28456;BME280;15682;56.742;38.866;2022-08-21T06:37:43;100660.0;;;21.9;42.7
28456;BME280;15682;56.742;38.866;2022-08-21T06:39:43;100660.0;;;21.9;41.8
28456;BME280;15682;56.742;38.866;2022-08-21T06:41:44;100660.0;;;22.0;40.4
28456;BME280;15682;56.742;38.866;2022-08-21T06:43:45;100660.0;;;22.0;41.0
28456;BME280;15682;56.742;38.866;2022-08-21T06:45:45;100660.0;;;22.2;39.7
28456;BME280;15682;56.742;38.866;2022-08-21T06:47:46;100660.0;;;22.2;40.5
28456;BME280;15682;56.742;38.866;2022-08-21T06:49:47;100660.0;;;22.3;41.0
28456;BME280;15682;56.742;38.866;2022-08-21T06:51:47;100660.0;;;22.5;41.0
28456;BME280;15682;56.742;38.866;2022-08-21T06:53:48;100660.0;;;22.6;39.4
28456;BME280;15682;56.742;38.866;2022-08-21T06:55:49;100650.0;;;22.7;40.4
28456;BME280;15682;56.742;38.866;2022-08-21T06:57:49;100650.0;;;22.7;40.1
28456;BME280;15682;56.742;38.866;2022-08-21T06:59:50;100650.0;;;22.7;39.5
28456;BME280;15682;56.742;38.866;2022-08-21T07:01:50;100650.0;;;22.7;38.3
28456;BME280;15682;56.742;38.866;2022-08-21T07:03:51;100650.0;;;22.7;39.3
28456;BME280;15682;56.742;38.866;2022-08-21T07:05:52;100640.0;;;22.8;38.6
28456;BME280;15682;56.742;38.866;2022-08-21T07:07:52;100640.0;;;22.9;38.6
28456;BME280;15682;56.742;38.866;2022-08-21T07:09:53;100640.0;;;23.0;38.6
28456;BME280;15682;56.742;38.866;2022-08-21T07:11:55;100640.0;;;23.2;40.3
28456;BME280;15682;56.742;38.866;2022-08-21T07:13:54;100640.0;;;23.3;38.8
28456;BME280;15682;56.742;38.866;2022-08-21T07:15:55;100640.0;;;23.3;37.8
28456;BME280;15682;56.742;38.866;2022-08-21T07:17:55;100640.0;;;23.2;36.7
28456;BME280;15682;56.742;38.866;2022-08-21T07:19:56;100640.0;;;23.2;36.9
28456;BME280;15682;56.742;38.866;2022-08-21T07:22:00;100640.0;;;23.2;36.9
28456;BME280;15682;56.742;38.866;2022-08-21T07:23:57;100640.0;;;23.1;36.9
28456;BME280;15682;56.742;38.866;2022-08-21T07:25:58;100640.0;;;23.1;36.9
28456;BME280;15682;56.742;38.866;2022-08-21T07:27:58;100640.0;;;23.1;38.2
28456;BME280;15682;56.742;38.866;2022-08-21T07:29:59;100640.0;;;23.3;38.1
28456;BME280;15682;56.742;38.866;2022-08-21T07:31:59;100640.0;;;23.3;37.4
28456;BME280;15682;56.742;38.866;2022-08-21T07:34:00;100640.0;;;23.3;36.2
28456;BME280;15682;56.742;38.866;2022-08-21T07:36:01;100640.0;;;23.6;38.5
28456;BME280;15682;56.742;38.866;2022-08-21T07:38:01;100640.0;;;23.8;35.9
28456;BME280;15682;56.742;38.866;2022-08-21T07:40:03;100640.0;;;23.8;36.9
28456;BME280;15682;56.742;38.866;2022-08-21T07:42:03;100640.0;;;23.9;36.4
28456;BME280;15682;56.742;38.866;2022-08-21T07:44:03;100630.0;;;23.9;35.8
28456;BME280;15682;56.742;38.866;2022-08-21T07:46:04;100630.0;;;23.9;34.5
28456;BME280;15682;56.742;38.866;2022-08-21T07:48:04;100630.0;;;24.0;35.6
28456;BME280;15682;56.742;38.866;2022-08-21T07:50:05;100630.0;;;24.2;35.3
28456;BME280;15682;56.742;38.866;2022-08-21T07:52:05;100630.0;;;24.3;34.1
28456;BME280;15682;56.742;38.866;2022-08-21T07:54:06;100630.0;;;24.4;34.8
28456;BME280;15682;56.742;38.866;2022-08-21T07:56:08;100630.0;;;24.3;33.3
28456;BME280;15682;56.742;38.866;2022-08-21T07:58:07;100630.0;;;24.5;33.9
28456;BME280;15682;56.742;38.866;2022-08-21T08:00:12;100630.0;;;24.7;33.3
28456;BME280;15682;56.742;38.866;2022-08-21T08:02:08;100620.0;;;24.7;33.3
28456;BME280;15682;56.742;38.866;2022-08-21T08:04:08;100620.0;;;24.5;33.9
28456;BME280;15682;56.742;38.866;2022-08-21T08:06:09;100620.0;;;24.7;33.9
28456;BME280;15682;56.742;38.866;2022-08-21T08:08:10;100620.0;;;24.8;31.3
28456;BME280;15682;56.742;38.866;2022-08-21T08:10:11;100620.0;;;24.8;31.8
28456;BME280;15682;56.742;38.866;2022-08-21T08:12:11;100620.0;;;24.8;33.3
28456;BME280;15682;56.742;38.866;2022-08-21T08:14:11;100620.0;;;24.8;31.9
28456;BME280;15682;56.742;38.866;2022-08-21T08:16:12;100620.0;;;25.0;33.0
28456;BME280;15682;56.742;38.866;2022-08-21T08:18:12;100610.0;;;25.2;32.7
28456;BME280;15682;56.742;38.866;2022-08-21T08:20:14;100610.0;;;25.0;31.6
28456;BME280;15682;56.742;38.866;2022-08-21T08:22:14;100610.0;;;25.0;31.6
28456;BME280;15682;56.742;38.866;2022-08-21T08:24:14;100610.0;;;25.1;30.8
28456;BME280;15682;56.742;38.866;2022-08-21T08:26:15;100610.0;;;25.1;30.4
28456;BME280;15682;56.742;38.866;2022-08-21T08:28:15;100610.0;;;25.5;31.3
28456;BME280;15682;56.742;38.866;2022-08-21T08:30:17;100610.0;;;25.5;31.3
28456;BME280;15682;56.742;38.866;2022-08-21T08:32:16;100610.0;;;25.5;31.3
28456;BME280;15682;56.742;38.866;2022-08-21T08:34:17;100610.0;;;25.7;31.3
28456;BME280;15682;56.742;38.866;2022-08-21T08:36:17;100610.0;;;25.6;30.8
28456;BME280;15682;56.742;38.866;2022-08-21T08:38:20;100610.0;;;25.6;30.8
28456;BME280;15682;56.742;38.866;2022-08-21T08:40:25;100590.0;;;25.8;31.5
28456;BME280;15682;56.742;38.866;2022-08-21T08:42:25;100590.0;;;26.0;31.5
28456;BME280;15682;56.742;38.866;2022-08-21T08:44:19;100590.0;;;26.1;30.8
28456;BME280;15682;56.742;38.866;2022-08-21T08:46:27;100590.0;;;26.3;30.5
28456;BME280;15682;56.742;38.866;2022-08-21T08:48:34;100590.0;;;26.3;30.5
28456;BME280;15682;56.742;38.866;2022-08-21T08:50:25;100590.0;;;26.2;30.0
28456;BME280;15682;56.742;38.866;2022-08-21T08:52:27;100590.0;;;26.1;28.5
28456;BME280;15682;56.742;38.866;2022-08-21T08:54:26;100590.0;;;26.1;28.5
28456;BME280;15682;56.742;38.866;2022-08-21T08:56:29;100590.0;;;26.1;30.3
28456;BME280;15682;56.742;38.866;2022-08-21T08:58:27;100590.0;;;26.4;29.6
28456;BME280;15682;56.742;38.866;2022-08-21T09:00:25;100590.0;;;26.4;30.1
28456;BME280;15682;56.742;38.866;2022-08-21T09:02:24;100590.0;;;26.4;30.1
28456;BME280;15682;56.742;38.866;2022-08-21T09:04:26;100590.0;;;26.5;30.1
28456;BME280;15682;56.742;38.866;2022-08-21T09:06:37;100590.0;;;26.3;29.5
28456;BME280;15682;56.742;38.866;2022-08-21T09:08:40;100590.0;;;26.5;30.0
28456;BME280;15682;56.742;38.866;2022-08-21T09:10:45;100590.0;;;26.5;30.0
28456;BME280;15682;56.742;38.866;2022-08-21T09:12:37;100580.0;;;26.5;30.0
28456;BME280;15682;56.742;38.866;2022-08-21T09:14:38;100580.0;;;26.6;30.0
28456;BME280;15682;56.742;38.866;2022-08-21T09:16:38;100580.0;;;26.4;29.6
28456;BME280;15682;56.742;38.866;2022-08-21T09:18:36;100580.0;;;26.3;29.6
28456;BME280;15682;56.742;38.866;2022-08-21T09:20:37;100580.0;;;26.3;29.6
28456;BME280;15682;56.742;38.866;2022-08-21T09:22:38;100580.0;;;26.4;29.6
28456;BME280;15682;56.742;38.866;2022-08-21T09:24:33;100580.0;;;26.5;29.6
28456;BME280;15682;56.742;38.866;2022-08-21T09:26:36;100570.0;;;26.5;29.8
28456;BME280;15682;56.742;38.866;2022-08-21T09:28:33;100570.0;;;26.5;29.8
28456;BME280;15682;56.742;38.866;2022-08-21T09:30:32;100570.0;;;26.5;29.8
28456;BME280;15682;56.742;38.866;2022-08-21T09:32:36;100570.0;;;26.2;28.6
28456;BME280;15682;56.742;38.866;2022-08-21T09:34:33;100570.0;;;26.3;29.2
28456;BME280;15682;56.742;38.866;2022-08-21T09:36:39;100570.0;;;26.3;29.7
28456;BME280;15682;56.742;38.866;2022-08-21T09:38:36;100570.0;;;26.4;30.5
28456;BME280;15682;56.742;38.866;2022-08-21T09:40:39;100570.0;;;26.4;29.8
28456;BME280;15682;56.742;38.866;2022-08-21T09:42:35;100570.0;;;26.6;29.8
28456;BME280;15682;56.742;38.866;2022-08-21T09:44:38;100570.0;;;26.6;29.8
28456;BME280;15682;56.742;38.866;2022-08-21T09:46:36;100560.0;;;26.8;29.5
28456;BME280;15682;56.742;38.866;2022-08-21T09:48:41;100560.0;;;26.5;30.6
28456;BME280;15682;56.742;38.866;2022-08-21T09:50:38;100560.0;;;26.3;30.6
28456;BME280;15682;56.742;38.866;2022-08-21T09:52:44;100560.0;;;26.0;31.8
28456;BME280;15682;56.742;38.866;2022-08-21T09:54:40;100560.0;;;26.2;31.8
28456;BME280;15682;56.742;38.866;2022-08-21T09:56:51;100560.0;;;26.4;31.2
28456;BME280;15682;56.742;38.866;2022-08-21T09:58:42;100560.0;;;26.2;31.2
28456;BME280;15682;56.742;38.866;2022-08-21T10:00:40;100560.0;;;26.4;31.8
28456;BME280;15682;56.742;38.866;2022-08-21T10:02:41;100570.0;;;26.4;31.3
28456;BME280;15682;56.742;38.866;2022-08-21T10:04:49;100570.0;;;26.4;30.8
28456;BME280;15682;56.742;38.866;2022-08-21T10:06:42;100570.0;;;26.2;31.0
28456;BME280;15682;56.742;38.866;2022-08-21T10:08:42;100560.0;;;26.2;31.5
28456;BME280;15682;56.742;38.866;2022-08-21T10:10:43;100560.0;;;26.3;31.5
28456;BME280;15682;56.742;38.866;2022-08-21T10:12:49;100560.0;;;26.3;31.0
28456;BME280;15682;56.742;38.866;2022-08-21T10:14:52;100560.0;;;26.3;31.0
28456;BME280;15682;56.742;38.866;2022-08-21T10:16:56;100550.0;;;26.3;30.4
28456;BME280;15682;56.742;38.866;2022-08-21T10:18:52;100550.0;;;26.2;31.0
28456;BME280;15682;56.742;38.866;2022-08-21T10:20:50;100550.0;;;26.1;30.3
28456;BME280;15682;56.742;38.866;2022-08-21T10:22:57;100530.0;;;26.0;30.3
28456;BME280;15682;56.742;38.866;2022-08-21T10:24:54;100530.0;;;26.0;30.3
28456;BME280;15682;56.742;38.866;2022-08-21T10:26:54;100530.0;;;26.0;30.5
28456;BME280;15682;56.742;38.866;2022-08-21T10:28:53;100530.0;;;26.0;30.5
28456;BME280;15682;56.742;38.866;2022-08-21T10:30:55;100530.0;;;26.0;29.9
28456;BME280;15682;56.742;38.866;2022-08-21T10:32:58;100520.0;;;26.0;29.9
28456;BME280;15682;56.742;38.866;2022-08-21T10:34:55;100520.0;;;26.2;30.4
28456;BME280;15682;56.742;38.866;2022-08-21T10:37:01;100520.0;;;26.2;30.2
28456;BME280;15682;56.742;38.866;2022-08-21T10:38:56;100520.0;;;26.2;29.8
28456;BME280;15682;56.742;38.866;2022-08-21T10:40:58;100520.0;;;26.2;29.8
28456;BME280;15682;56.742;38.866;2022-08-21T10:43:00;100520.0;;;26.2;29.8
28456;BME280;15682;56.742;38.866;2022-08-21T10:45:02;100520.0;;;26.3;30.5
28456;BME280;15682;56.742;38.866;2022-08-21T10:46:57;100520.0;;;26.3;30.0